Terminal Aerodrome Forecast
Issued by NWS

Current Version | Previous Version | Graphics & Text | Print | Product List | Glossary On
Versions: 1 2 3 4 5 6 7 8 9 10 11 12 13 14 15 16 17 18 19 20 21 22
000
FTUS41 KPBZ 230534
TAFHLG
TAF
KHLG 230534Z 2306/2406 17010KT P6SM -SHRA OVC050 WS020/20040KT
      TEMPO 2306/2308 3SM SHRA
     FM230800 21010KT P6SM VCSH BKN050
     FM231400 23018G28KT P6SM VCSH BKN035
     FM232100 24015G25KT P6SM VCSH BKN025=

USA.gov is the U.S. government's official web portal to all federal, state and local government web resources and services.